sensor_id;sensor_type;location;lat;lon;timestamp;P1;durP1;ratioP1;P2;durP2;ratioP2
9374;SDS011;4727;51.202;6.344;2023-04-03T00:00:56;6.90;;;6.20;;
9374;SDS011;4727;51.202;6.344;2023-04-03T00:03:22;7.43;;;6.17;;
9374;SDS011;4727;51.202;6.344;2023-04-03T00:05:49;6.60;;;6.00;;
9374;SDS011;4727;51.202;6.344;2023-04-03T00:08:16;7.87;;;6.13;;
9374;SDS011;4727;51.202;6.344;2023-04-03T00:10:42;6.13;;;5.63;;
9374;SDS011;4727;51.202;6.344;2023-04-03T00:13:08;6.87;;;6.17;;
9374;SDS011;4727;51.202;6.344;2023-04-03T00:15:34;6.93;;;6.33;;
9374;SDS011;4727;51.202;6.344;2023-04-03T00:18:00;6.33;;;5.83;;
9374;SDS011;4727;51.202;6.344;2023-04-03T00:20:27;7.10;;;6.40;;
9374;SDS011;4727;51.202;6.344;2023-04-03T00:22:53;6.60;;;6.00;;
9374;SDS011;4727;51.202;6.344;2023-04-03T00:25:19;8.70;;;6.80;;
9374;SDS011;4727;51.202;6.344;2023-04-03T00:27:45;6.83;;;6.30;;
9374;SDS011;4727;51.202;6.344;2023-04-03T00:30:13;6.83;;;6.20;;
9374;SDS011;4727;51.202;6.344;2023-04-03T00:32:40;8.00;;;6.23;;
9374;SDS011;4727;51.202;6.344;2023-04-03T00:35:06;7.43;;;6.73;;
9374;SDS011;4727;51.202;6.344;2023-04-03T00:37:32;7.37;;;6.67;;
9374;SDS011;4727;51.202;6.344;2023-04-03T00:39:58;7.37;;;6.67;;
9374;SDS011;4727;51.202;6.344;2023-04-03T00:42:24;6.97;;;6.37;;
9374;SDS011;4727;51.202;6.344;2023-04-03T00:47:22;7.63;;;6.93;;
9374;SDS011;4727;51.202;6.344;2023-04-03T00:49:49;7.30;;;6.67;;
9374;SDS011;4727;51.202;6.344;2023-04-03T00:52:17;8.00;;;6.60;;
9374;SDS011;4727;51.202;6.344;2023-04-03T00:54:46;7.43;;;6.80;;
9374;SDS011;4727;51.202;6.344;2023-04-03T00:57:13;7.63;;;6.87;;
9374;SDS011;4727;51.202;6.344;2023-04-03T00:59:41;8.73;;;7.10;;
9374;SDS011;4727;51.202;6.344;2023-04-03T01:02:09;7.37;;;6.67;;
9374;SDS011;4727;51.202;6.344;2023-04-03T01:04:36;7.00;;;6.40;;
9374;SDS011;4727;51.202;6.344;2023-04-03T01:07:06;7.67;;;6.87;;
9374;SDS011;4727;51.202;6.344;2023-04-03T01:09:35;7.33;;;6.63;;
9374;SDS011;4727;51.202;6.344;2023-04-03T01:12:15;7.23;;;6.57;;
9374;SDS011;4727;51.202;6.344;2023-04-03T01:14:41;8.13;;;6.93;;
9374;SDS011;4727;51.202;6.344;2023-04-03T01:22:42;9.97;;;7.17;;
9374;SDS011;4727;51.202;6.344;2023-04-03T01:25:13;7.77;;;6.57;;
9374;SDS011;4727;51.202;6.344;2023-04-03T01:27:39;8.03;;;7.23;;
9374;SDS011;4727;51.202;6.344;2023-04-03T01:30:05;8.70;;;7.30;;
9374;SDS011;4727;51.202;6.344;2023-04-03T01:32:31;8.67;;;7.60;;
9374;SDS011;4727;51.202;6.344;2023-04-03T01:34:57;8.60;;;7.63;;
9374;SDS011;4727;51.202;6.344;2023-04-03T01:37:23;8.60;;;7.77;;
9374;SDS011;4727;51.202;6.344;2023-04-03T01:39:49;8.10;;;7.40;;
9374;SDS011;4727;51.202;6.344;2023-04-03T01:42:15;8.63;;;7.73;;
9374;SDS011;4727;51.202;6.344;2023-04-03T01:44:42;8.83;;;7.93;;
9374;SDS011;4727;51.202;6.344;2023-04-03T01:47:08;8.30;;;7.60;;
9374;SDS011;4727;51.202;6.344;2023-04-03T01:49:34;8.30;;;7.50;;
9374;SDS011;4727;51.202;6.344;2023-04-03T01:52:00;7.57;;;6.87;;
9374;SDS011;4727;51.202;6.344;2023-04-03T01:54:26;8.47;;;7.33;;
9374;SDS011;4727;51.202;6.344;2023-04-03T01:56:52;9.10;;;8.20;;
9374;SDS011;4727;51.202;6.344;2023-04-03T01:59:17;8.17;;;7.37;;
9374;SDS011;4727;51.202;6.344;2023-04-03T02:01:44;8.37;;;7.57;;
9374;SDS011;4727;51.202;6.344;2023-04-03T02:04:11;8.87;;;8.03;;
9374;SDS011;4727;51.202;6.344;2023-04-03T02:06:37;8.17;;;7.37;;
9374;SDS011;4727;51.202;6.344;2023-04-03T02:09:03;9.90;;;8.10;;
9374;SDS011;4727;51.202;6.344;2023-04-03T02:11:29;11.00;;;8.70;;
9374;SDS011;4727;51.202;6.344;2023-04-03T02:13:55;11.60;;;9.17;;
9374;SDS011;4727;51.202;6.344;2023-04-03T02:16:21;11.07;;;9.43;;
9374;SDS011;4727;51.202;6.344;2023-04-03T02:18:47;10.50;;;9.50;;
9374;SDS011;4727;51.202;6.344;2023-04-03T02:21:13;10.27;;;9.20;;
9374;SDS011;4727;51.202;6.344;2023-04-03T02:23:39;9.97;;;9.17;;
9374;SDS011;4727;51.202;6.344;2023-04-03T02:26:06;9.00;;;8.10;;
9374;SDS011;4727;51.202;6.344;2023-04-03T02:28:34;11.07;;;9.07;;
9374;SDS011;4727;51.202;6.344;2023-04-03T02:31:00;11.40;;;10.30;;
9374;SDS011;4727;51.202;6.344;2023-04-03T02:33:27;10.93;;;9.40;;
9374;SDS011;4727;51.202;6.344;2023-04-03T02:35:54;11.80;;;10.70;;
9374;SDS011;4727;51.202;6.344;2023-04-03T02:38:20;12.00;;;10.80;;
9374;SDS011;4727;51.202;6.344;2023-04-03T02:40:47;14.40;;;11.37;;
9374;SDS011;4727;51.202;6.344;2023-04-03T02:43:13;12.33;;;11.13;;
9374;SDS011;4727;51.202;6.344;2023-04-03T02:45:39;11.77;;;10.57;;
9374;SDS011;4727;51.202;6.344;2023-04-03T02:48:05;12.77;;;11.13;;
9374;SDS011;4727;51.202;6.344;2023-04-03T02:50:31;13.03;;;11.73;;
9374;SDS011;4727;51.202;6.344;2023-04-03T02:52:57;14.83;;;11.80;;
9374;SDS011;4727;51.202;6.344;2023-04-03T02:55:23;11.80;;;10.77;;
9374;SDS011;4727;51.202;6.344;2023-04-03T02:57:49;11.10;;;10.00;;
9374;SDS011;4727;51.202;6.344;2023-04-03T03:00:15;11.57;;;10.47;;
9374;SDS011;4727;51.202;6.344;2023-04-03T03:02:41;10.97;;;9.87;;
9374;SDS011;4727;51.202;6.344;2023-04-03T03:05:07;11.93;;;9.97;;
9374;SDS011;4727;51.202;6.344;2023-04-03T03:07:33;11.53;;;10.37;;
9374;SDS011;4727;51.202;6.344;2023-04-03T03:09:59;11.53;;;10.13;;
9374;SDS011;4727;51.202;6.344;2023-04-03T03:12:25;11.13;;;9.90;;
9374;SDS011;4727;51.202;6.344;2023-04-03T03:14:51;10.50;;;9.13;;
9374;SDS011;4727;51.202;6.344;2023-04-03T03:17:17;9.97;;;8.40;;
9374;SDS011;4727;51.202;6.344;2023-04-03T03:19:43;14.47;;;9.60;;
9374;SDS011;4727;51.202;6.344;2023-04-03T03:22:10;12.27;;;8.73;;
9374;SDS011;4727;51.202;6.344;2023-04-03T03:24:36;9.30;;;8.23;;
9374;SDS011;4727;51.202;6.344;2023-04-03T03:27:02;9.33;;;7.47;;
9374;SDS011;4727;51.202;6.344;2023-04-03T03:29:28;9.83;;;7.43;;
9374;SDS011;4727;51.202;6.344;2023-04-03T03:31:54;8.27;;;7.37;;
9374;SDS011;4727;51.202;6.344;2023-04-03T03:34:20;7.93;;;7.13;;
9374;SDS011;4727;51.202;6.344;2023-04-03T03:36:46;7.50;;;6.57;;
9374;SDS011;4727;51.202;6.344;2023-04-03T03:39:12;10.77;;;7.30;;
9374;SDS011;4727;51.202;6.344;2023-04-03T03:41:38;8.97;;;6.67;;
9374;SDS011;4727;51.202;6.344;2023-04-03T03:44:04;6.90;;;5.73;;
9374;SDS011;4727;51.202;6.344;2023-04-03T03:46:30;8.83;;;6.23;;
9374;SDS011;4727;51.202;6.344;2023-04-03T03:48:56;8.37;;;6.00;;
9374;SDS011;4727;51.202;6.344;2023-04-03T03:51:22;7.00;;;5.87;;
9374;SDS011;4727;51.202;6.344;2023-04-03T03:53:48;7.83;;;6.10;;
9374;SDS011;4727;51.202;6.344;2023-04-03T03:56:14;9.23;;;6.00;;
9374;SDS011;4727;51.202;6.344;2023-04-03T03:58:40;6.97;;;5.60;;
9374;SDS011;4727;51.202;6.344;2023-04-03T04:01:06;8.53;;;5.37;;
9374;SDS011;4727;51.202;6.344;2023-04-03T04:03:33;8.73;;;5.40;;
9374;SDS011;4727;51.202;6.344;2023-04-03T04:05:59;5.97;;;5.07;;
9374;SDS011;4727;51.202;6.344;2023-04-03T04:08:25;7.30;;;5.67;;
9374;SDS011;4727;51.202;6.344;2023-04-03T04:10:51;4.90;;;4.40;;
9374;SDS011;4727;51.202;6.344;2023-04-03T04:13:17;5.30;;;4.80;;
9374;SDS011;4727;51.202;6.344;2023-04-03T04:15:43;7.83;;;5.57;;
9374;SDS011;4727;51.202;6.344;2023-04-03T04:18:09;8.10;;;5.30;;
9374;SDS011;4727;51.202;6.344;2023-04-03T04:20:35;5.67;;;4.77;;
9374;SDS011;4727;51.202;6.344;2023-04-03T04:23:01;5.43;;;4.87;;
9374;SDS011;4727;51.202;6.344;2023-04-03T04:25:27;5.17;;;4.63;;
9374;SDS011;4727;51.202;6.344;2023-04-03T04:27:53;6.87;;;4.97;;
9374;SDS011;4727;51.202;6.344;2023-04-03T04:30:19;6.03;;;4.53;;
9374;SDS011;4727;51.202;6.344;2023-04-03T04:32:45;7.23;;;4.80;;
9374;SDS011;4727;51.202;6.344;2023-04-03T04:35:11;6.37;;;4.60;;
9374;SDS011;4727;51.202;6.344;2023-04-03T04:37:37;4.60;;;4.10;;
9374;SDS011;4727;51.202;6.344;2023-04-03T04:40:03;5.97;;;4.60;;
9374;SDS011;4727;51.202;6.344;2023-04-03T04:42:29;7.97;;;4.47;;
9374;SDS011;4727;51.202;6.344;2023-04-03T04:44:55;6.10;;;4.50;;
9374;SDS011;4727;51.202;6.344;2023-04-03T04:47:21;6.23;;;4.77;;
9374;SDS011;4727;51.202;6.344;2023-04-03T04:49:47;7.57;;;4.00;;
9374;SDS011;4727;51.202;6.344;2023-04-03T04:52:14;9.20;;;4.70;;
9374;SDS011;4727;51.202;6.344;2023-04-03T04:54:40;5.47;;;4.10;;
9374;SDS011;4727;51.202;6.344;2023-04-03T04:57:06;5.47;;;4.30;;
9374;SDS011;4727;51.202;6.344;2023-04-03T04:59:32;6.27;;;4.73;;
9374;SDS011;4727;51.202;6.344;2023-04-03T05:01:58;6.63;;;4.47;;
9374;SDS011;4727;51.202;6.344;2023-04-03T05:04:24;5.80;;;4.27;;
9374;SDS011;4727;51.202;6.344;2023-04-03T05:06:50;4.97;;;4.43;;
9374;SDS011;4727;51.202;6.344;2023-04-03T05:09:16;5.90;;;4.20;;
9374;SDS011;4727;51.202;6.344;2023-04-03T05:11:42;6.10;;;4.50;;
9374;SDS011;4727;51.202;6.344;2023-04-03T05:14:08;5.67;;;4.37;;
9374;SDS011;4727;51.202;6.344;2023-04-03T05:16:34;5.47;;;3.93;;
9374;SDS011;4727;51.202;6.344;2023-04-03T05:19:00;5.27;;;4.50;;
9374;SDS011;4727;51.202;6.344;2023-04-03T05:21:26;5.77;;;4.23;;
9374;SDS011;4727;51.202;6.344;2023-04-03T05:23:56;6.17;;;4.10;;
9374;SDS011;4727;51.202;6.344;2023-04-03T05:26:22;6.43;;;4.57;;
9374;SDS011;4727;51.202;6.344;2023-04-03T05:28:48;6.30;;;4.77;;
9374;SDS011;4727;51.202;6.344;2023-04-03T05:31:14;5.83;;;4.40;;
9374;SDS011;4727;51.202;6.344;2023-04-03T05:33:40;6.10;;;4.70;;
9374;SDS011;4727;51.202;6.344;2023-04-03T05:36:06;5.90;;;4.37;;
9374;SDS011;4727;51.202;6.344;2023-04-03T05:38:32;6.03;;;4.53;;
9374;SDS011;4727;51.202;6.344;2023-04-03T05:40:58;6.60;;;4.37;;
9374;SDS011;4727;51.202;6.344;2023-04-03T05:43:25;5.80;;;4.40;;
9374;SDS011;4727;51.202;6.344;2023-04-03T05:45:51;5.23;;;4.50;;
9374;SDS011;4727;51.202;6.344;2023-04-03T05:48:17;7.20;;;4.50;;
9374;SDS011;4727;51.202;6.344;2023-04-03T05:50:43;7.47;;;4.43;;
9374;SDS011;4727;51.202;6.344;2023-04-03T05:53:16;5.27;;;4.07;;
9374;SDS011;4727;51.202;6.344;2023-04-03T05:55:47;8.13;;;4.40;;
9374;SDS011;4727;51.202;6.344;2023-04-03T05:58:13;4.70;;;4.30;;
9374;SDS011;4727;51.202;6.344;2023-04-03T06:00:39;6.60;;;4.40;;
9374;SDS011;4727;51.202;6.344;2023-04-03T06:03:05;6.80;;;4.57;;
9374;SDS011;4727;51.202;6.344;2023-04-03T06:05:31;5.70;;;4.00;;
9374;SDS011;4727;51.202;6.344;2023-04-03T06:07:58;7.73;;;4.93;;
9374;SDS011;4727;51.202;6.344;2023-04-03T06:10:24;6.60;;;4.03;;
9374;SDS011;4727;51.202;6.344;2023-04-03T06:12:50;7.50;;;4.27;;
9374;SDS011;4727;51.202;6.344;2023-04-03T06:15:16;4.63;;;4.07;;
9374;SDS011;4727;51.202;6.344;2023-04-03T06:17:42;6.63;;;3.47;;
9374;SDS011;4727;51.202;6.344;2023-04-03T06:20:08;5.83;;;3.77;;
9374;SDS011;4727;51.202;6.344;2023-04-03T06:22:35;4.13;;;3.40;;
9374;SDS011;4727;51.202;6.344;2023-04-03T06:25:01;6.13;;;3.80;;
9374;SDS011;4727;51.202;6.344;2023-04-03T06:27:27;5.27;;;3.60;;
9374;SDS011;4727;51.202;6.344;2023-04-03T06:29:53;6.60;;;3.97;;
9374;SDS011;4727;51.202;6.344;2023-04-03T06:32:19;8.60;;;3.93;;
9374;SDS011;4727;51.202;6.344;2023-04-03T06:34:45;6.10;;;4.17;;
9374;SDS011;4727;51.202;6.344;2023-04-03T06:37:15;5.10;;;3.77;;
9374;SDS011;4727;51.202;6.344;2023-04-03T06:39:42;8.90;;;3.90;;
9374;SDS011;4727;51.202;6.344;2023-04-03T06:42:08;5.50;;;3.80;;
9374;SDS011;4727;51.202;6.344;2023-04-03T06:44:34;9.07;;;3.97;;
9374;SDS011;4727;51.202;6.344;2023-04-03T06:47:00;5.60;;;3.67;;
9374;SDS011;4727;51.202;6.344;2023-04-03T06:49:26;5.03;;;3.50;;
9374;SDS011;4727;51.202;6.344;2023-04-03T06:51:53;5.63;;;3.37;;
9374;SDS011;4727;51.202;6.344;2023-04-03T06:54:20;5.37;;;3.90;;
9374;SDS011;4727;51.202;6.344;2023-04-03T06:56:46;3.23;;;2.93;;
9374;SDS011;4727;51.202;6.344;2023-04-03T06:59:12;6.90;;;3.70;;
9374;SDS011;4727;51.202;6.344;2023-04-03T07:01:39;5.37;;;3.80;;
9374;SDS011;4727;51.202;6.344;2023-04-03T07:04:05;5.30;;;3.93;;
9374;SDS011;4727;51.202;6.344;2023-04-03T07:06:32;5.50;;;3.90;;
9374;SDS011;4727;51.202;6.344;2023-04-03T07:08:58;5.87;;;3.50;;
9374;SDS011;4727;51.202;6.344;2023-04-03T07:11:25;6.23;;;4.03;;
9374;SDS011;4727;51.202;6.344;2023-04-03T07:13:51;4.63;;;3.73;;
9374;SDS011;4727;51.202;6.344;2023-04-03T07:16:17;6.37;;;3.50;;
9374;SDS011;4727;51.202;6.344;2023-04-03T07:18:43;4.27;;;3.70;;
9374;SDS011;4727;51.202;6.344;2023-04-03T07:21:09;6.83;;;3.40;;
9374;SDS011;4727;51.202;6.344;2023-04-03T07:23:35;4.17;;;3.77;;
9374;SDS011;4727;51.202;6.344;2023-04-03T07:26:01;10.77;;;4.37;;
9374;SDS011;4727;51.202;6.344;2023-04-03T07:28:27;6.07;;;3.60;;
9374;SDS011;4727;51.202;6.344;2023-04-03T07:30:59;4.53;;;3.40;;
9374;SDS011;4727;51.202;6.344;2023-04-03T07:33:27;6.97;;;3.60;;
9374;SDS011;4727;51.202;6.344;2023-04-03T07:35:53;7.80;;;3.80;;
9374;SDS011;4727;51.202;6.344;2023-04-03T07:38:19;6.67;;;3.10;;
9374;SDS011;4727;51.202;6.344;2023-04-03T07:40:46;6.33;;;4.20;;
9374;SDS011;4727;51.202;6.344;2023-04-03T07:43:13;5.93;;;3.37;;
9374;SDS011;4727;51.202;6.344;2023-04-03T07:45:39;6.43;;;3.60;;
9374;SDS011;4727;51.202;6.344;2023-04-03T07:48:05;5.67;;;3.27;;
9374;SDS011;4727;51.202;6.344;2023-04-03T07:50:31;5.97;;;3.50;;
9374;SDS011;4727;51.202;6.344;2023-04-03T07:52:57;5.13;;;3.77;;
9374;SDS011;4727;51.202;6.344;2023-04-03T07:55:23;5.00;;;3.37;;
9374;SDS011;4727;51.202;6.344;2023-04-03T07:57:50;6.80;;;4.43;;
9374;SDS011;4727;51.202;6.344;2023-04-03T08:00:16;10.60;;;4.93;;
9374;SDS011;4727;51.202;6.344;2023-04-03T08:02:43;9.20;;;5.13;;
9374;SDS011;4727;51.202;6.344;2023-04-03T08:05:09;4.70;;;3.27;;
9374;SDS011;4727;51.202;6.344;2023-04-03T08:07:36;4.47;;;3.13;;
9374;SDS011;4727;51.202;6.344;2023-04-03T08:10:03;6.83;;;3.43;;
9374;SDS011;4727;51.202;6.344;2023-04-03T08:12:29;6.90;;;3.97;;
9374;SDS011;4727;51.202;6.344;2023-04-03T08:14:56;8.63;;;4.30;;
9374;SDS011;4727;51.202;6.344;2023-04-03T08:17:22;3.07;;;2.70;;
9374;SDS011;4727;51.202;6.344;2023-04-03T08:19:48;7.40;;;4.23;;
9374;SDS011;4727;51.202;6.344;2023-04-03T08:22:14;5.43;;;2.60;;
9374;SDS011;4727;51.202;6.344;2023-04-03T08:24:41;3.30;;;3.00;;
9374;SDS011;4727;51.202;6.344;2023-04-03T08:27:07;4.80;;;2.93;;
9374;SDS011;4727;51.202;6.344;2023-04-03T08:29:32;4.67;;;2.73;;
9374;SDS011;4727;51.202;6.344;2023-04-03T08:31:59;4.03;;;3.03;;
9374;SDS011;4727;51.202;6.344;2023-04-03T08:34:25;2.83;;;2.60;;
9374;SDS011;4727;51.202;6.344;2023-04-03T08:36:51;2.93;;;1.90;;
9374;SDS011;4727;51.202;6.344;2023-04-03T08:39:17;8.37;;;3.57;;
9374;SDS011;4727;51.202;6.344;2023-04-03T08:41:43;4.73;;;2.50;;
9374;SDS011;4727;51.202;6.344;2023-04-03T08:49:44;6.83;;;3.30;;
9374;SDS011;4727;51.202;6.344;2023-04-03T08:52:18;6.23;;;3.00;;
9374;SDS011;4727;51.202;6.344;2023-04-03T08:54:52;17.40;;;8.83;;
9374;SDS011;4727;51.202;6.344;2023-04-03T08:57:28;14.90;;;7.67;;
9374;SDS011;4727;51.202;6.344;2023-04-03T08:59:57;19.57;;;9.20;;
9374;SDS011;4727;51.202;6.344;2023-04-03T09:02:45;13.13;;;6.03;;
9374;SDS011;4727;51.202;6.344;2023-04-03T09:05:15;4.07;;;2.97;;
9374;SDS011;4727;51.202;6.344;2023-04-03T09:07:43;4.57;;;2.50;;
9374;SDS011;4727;51.202;6.344;2023-04-03T09:10:15;2.60;;;1.70;;
9374;SDS011;4727;51.202;6.344;2023-04-03T09:12:53;5.77;;;2.40;;
9374;SDS011;4727;51.202;6.344;2023-04-03T09:15:39;2.23;;;1.90;;
9374;SDS011;4727;51.202;6.344;2023-04-03T09:18:11;12.13;;;5.20;;
9374;SDS011;4727;51.202;6.344;2023-04-03T09:23:30;3.10;;;2.77;;
9374;SDS011;4727;51.202;6.344;2023-04-03T09:26:07;7.67;;;5.07;;
9374;SDS011;4727;51.202;6.344;2023-04-03T09:28:39;9.83;;;4.90;;
9374;SDS011;4727;51.202;6.344;2023-04-03T09:31:27;9.00;;;4.80;;
9374;SDS011;4727;51.202;6.344;2023-04-03T09:34:10;3.70;;;3.00;;
9374;SDS011;4727;51.202;6.344;2023-04-03T09:36:49;1.90;;;1.80;;
9374;SDS011;4727;51.202;6.344;2023-04-03T09:39:20;1.90;;;1.80;;
9374;SDS011;4727;51.202;6.344;2023-04-03T09:42:12;2.07;;;1.83;;
9374;SDS011;4727;51.202;6.344;2023-04-03T09:44:48;3.67;;;2.70;;
9374;SDS011;4727;51.202;6.344;2023-04-03T09:47:39;5.13;;;2.50;;
9374;SDS011;4727;51.202;6.344;2023-04-03T09:52:38;1.37;;;1.17;;
9374;SDS011;4727;51.202;6.344;2023-04-03T09:55:13;1.63;;;1.40;;
9374;SDS011;4727;51.202;6.344;2023-04-03T09:57:40;2.30;;;2.10;;
9374;SDS011;4727;51.202;6.344;2023-04-03T10:00:10;3.30;;;1.33;;
9374;SDS011;4727;51.202;6.344;2023-04-03T10:02:48;3.77;;;1.83;;
9374;SDS011;4727;51.202;6.344;2023-04-03T10:05:27;1.50;;;1.40;;
9374;SDS011;4727;51.202;6.344;2023-04-03T10:10:44;3.00;;;1.70;;
9374;SDS011;4727;51.202;6.344;2023-04-03T10:15:51;1.73;;;1.47;;
9374;SDS011;4727;51.202;6.344;2023-04-03T10:18:27;2.30;;;1.87;;
9374;SDS011;4727;51.202;6.344;2023-04-03T10:21:48;1.70;;;1.60;;
9374;SDS011;4727;51.202;6.344;2023-04-03T10:32:02;3.63;;;1.30;;
9374;SDS011;4727;51.202;6.344;2023-04-03T10:34:48;2.30;;;1.70;;
9374;SDS011;4727;51.202;6.344;2023-04-03T10:37:25;2.47;;;2.20;;
9374;SDS011;4727;51.202;6.344;2023-04-03T10:39:58;3.00;;;1.73;;
9374;SDS011;4727;51.202;6.344;2023-04-03T10:42:35;2.00;;;1.80;;
9374;SDS011;4727;51.202;6.344;2023-04-03T10:45:19;2.57;;;1.57;;
9374;SDS011;4727;51.202;6.344;2023-04-03T10:50:29;2.27;;;1.47;;
9374;SDS011;4727;51.202;6.344;2023-04-03T10:56:12;2.57;;;2.03;;
9374;SDS011;4727;51.202;6.344;2023-04-03T11:01:51;2.20;;;2.00;;
9374;SDS011;4727;51.202;6.344;2023-04-03T11:04:20;2.23;;;1.80;;
9374;SDS011;4727;51.202;6.344;2023-04-03T11:07:02;1.50;;;1.40;;
9374;SDS011;4727;51.202;6.344;2023-04-03T11:09:40;2.13;;;1.80;;
9374;SDS011;4727;51.202;6.344;2023-04-03T11:12:13;2.33;;;1.80;;
9374;SDS011;4727;51.202;6.344;2023-04-03T11:15:03;2.73;;;2.40;;
9374;SDS011;4727;51.202;6.344;2023-04-03T11:17:34;2.20;;;1.80;;
9374;SDS011;4727;51.202;6.344;2023-04-03T11:22:53;2.40;;;2.17;;
9374;SDS011;4727;51.202;6.344;2023-04-03T11:25:26;1.63;;;1.47;;
9374;SDS011;4727;51.202;6.344;2023-04-03T11:27:59;5.37;;;2.23;;
9374;SDS011;4727;51.202;6.344;2023-04-03T11:33:19;4.67;;;2.03;;
9374;SDS011;4727;51.202;6.344;2023-04-03T11:36:07;2.47;;;2.07;;
9374;SDS011;4727;51.202;6.344;2023-04-03T11:38:38;6.33;;;2.10;;
9374;SDS011;4727;51.202;6.344;2023-04-03T11:41:08;1.77;;;1.67;;
9374;SDS011;4727;51.202;6.344;2023-04-03T11:43:39;2.50;;;2.27;;
9374;SDS011;4727;51.202;6.344;2023-04-03T11:46:07;2.43;;;1.73;;
9374;SDS011;4727;51.202;6.344;2023-04-03T11:53:38;2.43;;;2.20;;
9374;SDS011;4727;51.202;6.344;2023-04-03T12:04:25;2.50;;;1.90;;
9374;SDS011;4727;51.202;6.344;2023-04-03T12:07:18;2.57;;;1.87;;
9374;SDS011;4727;51.202;6.344;2023-04-03T12:14:53;3.07;;;2.03;;
9374;SDS011;4727;51.202;6.344;2023-04-03T12:17:25;2.90;;;2.40;;
9374;SDS011;4727;51.202;6.344;2023-04-03T12:19:52;3.67;;;2.33;;
9374;SDS011;4727;51.202;6.344;2023-04-03T12:22:19;2.43;;;2.23;;
9374;SDS011;4727;51.202;6.344;2023-04-03T12:24:47;2.83;;;1.90;;
9374;SDS011;4727;51.202;6.344;2023-04-03T12:27:19;1.77;;;1.67;;
9374;SDS011;4727;51.202;6.344;2023-04-03T12:30:00;1.83;;;1.70;;
9374;SDS011;4727;51.202;6.344;2023-04-03T12:46:21;1.90;;;1.80;;
9374;SDS011;4727;51.202;6.344;2023-04-03T12:48:53;2.87;;;1.90;;
9374;SDS011;4727;51.202;6.344;2023-04-03T12:51:30;1.97;;;1.83;;
9374;SDS011;4727;51.202;6.344;2023-04-03T12:54:03;2.90;;;2.00;;
9374;SDS011;4727;51.202;6.344;2023-04-03T12:56:38;1.83;;;1.73;;
9374;SDS011;4727;51.202;6.344;2023-04-03T13:01:42;4.47;;;2.30;;
9374;SDS011;4727;51.202;6.344;2023-04-03T13:04:09;2.53;;;2.17;;
9374;SDS011;4727;51.202;6.344;2023-04-03T13:06:41;3.00;;;2.33;;
9374;SDS011;4727;51.202;6.344;2023-04-03T13:09:19;4.33;;;1.90;;
9374;SDS011;4727;51.202;6.344;2023-04-03T13:11:47;2.73;;;2.40;;
9374;SDS011;4727;51.202;6.344;2023-04-03T13:14:16;3.70;;;2.20;;
9374;SDS011;4727;51.202;6.344;2023-04-03T13:17:02;2.87;;;2.10;;
9374;SDS011;4727;51.202;6.344;2023-04-03T13:19:37;2.90;;;1.97;;
9374;SDS011;4727;51.202;6.344;2023-04-03T13:22:07;2.20;;;2.00;;
9374;SDS011;4727;51.202;6.344;2023-04-03T13:24:58;3.10;;;1.90;;
9374;SDS011;4727;51.202;6.344;2023-04-03T13:27:27;2.10;;;1.83;;
9374;SDS011;4727;51.202;6.344;2023-04-03T13:29:57;3.50;;;2.13;;
9374;SDS011;4727;51.202;6.344;2023-04-03T13:32:26;2.10;;;2.00;;
9374;SDS011;4727;51.202;6.344;2023-04-03T13:34:54;2.90;;;1.97;;
9374;SDS011;4727;51.202;6.344;2023-04-03T13:39:57;1.87;;;1.77;;
9374;SDS011;4727;51.202;6.344;2023-04-03T13:42:24;1.93;;;1.77;;
9374;SDS011;4727;51.202;6.344;2023-04-03T13:48:08;1.67;;;1.57;;
9374;SDS011;4727;51.202;6.344;2023-04-03T13:53:26;2.30;;;1.60;;
9374;SDS011;4727;51.202;6.344;2023-04-03T13:58:29;2.03;;;1.93;;
9374;SDS011;4727;51.202;6.344;2023-04-03T14:01:00;1.87;;;1.77;;
9374;SDS011;4727;51.202;6.344;2023-04-03T14:03:52;3.83;;;2.13;;
9374;SDS011;4727;51.202;6.344;2023-04-03T14:06:23;2.23;;;1.93;;
9374;SDS011;4727;51.202;6.344;2023-04-03T14:08:49;2.53;;;1.90;;
9374;SDS011;4727;51.202;6.344;2023-04-03T14:13:42;2.63;;;2.00;;
9374;SDS011;4727;51.202;6.344;2023-04-03T14:16:11;3.70;;;1.90;;
9374;SDS011;4727;51.202;6.344;2023-04-03T14:18:43;2.07;;;1.80;;
9374;SDS011;4727;51.202;6.344;2023-04-03T14:21:13;1.87;;;1.77;;
9374;SDS011;4727;51.202;6.344;2023-04-03T14:23:40;3.37;;;2.00;;
9374;SDS011;4727;51.202;6.344;2023-04-03T14:26:13;1.93;;;1.83;;
9374;SDS011;4727;51.202;6.344;2023-04-03T14:28:42;4.13;;;1.70;;
9374;SDS011;4727;51.202;6.344;2023-04-03T14:31:09;2.17;;;1.97;;
9374;SDS011;4727;51.202;6.344;2023-04-03T14:33:35;3.40;;;2.33;;
9374;SDS011;4727;51.202;6.344;2023-04-03T14:36:04;1.90;;;1.80;;
9374;SDS011;4727;51.202;6.344;2023-04-03T14:38:41;3.40;;;2.20;;
9374;SDS011;4727;51.202;6.344;2023-04-03T14:41:07;4.77;;;2.60;;
9374;SDS011;4727;51.202;6.344;2023-04-03T14:43:35;4.07;;;2.60;;
9374;SDS011;4727;51.202;6.344;2023-04-03T14:46:01;2.80;;;2.10;;
9374;SDS011;4727;51.202;6.344;2023-04-03T14:48:27;2.43;;;2.23;;
9374;SDS011;4727;51.202;6.344;2023-04-03T14:50:54;2.33;;;2.07;;
9374;SDS011;4727;51.202;6.344;2023-04-03T14:53:20;2.33;;;2.13;;
9374;SDS011;4727;51.202;6.344;2023-04-03T14:55:51;3.40;;;2.30;;
9374;SDS011;4727;51.202;6.344;2023-04-03T14:58:18;2.20;;;1.90;;
9374;SDS011;4727;51.202;6.344;2023-04-03T15:00:45;3.70;;;2.23;;
9374;SDS011;4727;51.202;6.344;2023-04-03T15:03:18;2.13;;;1.90;;
9374;SDS011;4727;51.202;6.344;2023-04-03T15:05:46;3.10;;;2.20;;
9374;SDS011;4727;51.202;6.344;2023-04-03T15:08:23;2.20;;;2.00;;
9374;SDS011;4727;51.202;6.344;2023-04-03T15:10:50;1.87;;;1.77;;
9374;SDS011;4727;51.202;6.344;2023-04-03T15:13:17;3.07;;;2.20;;
9374;SDS011;4727;51.202;6.344;2023-04-03T15:15:44;2.10;;;2.00;;
9374;SDS011;4727;51.202;6.344;2023-04-03T15:18:14;2.10;;;1.83;;
9374;SDS011;4727;51.202;6.344;2023-04-03T15:20:42;2.23;;;1.93;;
9374;SDS011;4727;51.202;6.344;2023-04-03T15:23:08;2.93;;;1.97;;
9374;SDS011;4727;51.202;6.344;2023-04-03T15:25:35;3.73;;;2.40;;
9374;SDS011;4727;51.202;6.344;2023-04-03T15:28:01;2.67;;;2.20;;
9374;SDS011;4727;51.202;6.344;2023-04-03T15:30:27;3.20;;;1.90;;
9374;SDS011;4727;51.202;6.344;2023-04-03T15:32:53;3.27;;;2.73;;
9374;SDS011;4727;51.202;6.344;2023-04-03T15:35:19;2.70;;;2.50;;
9374;SDS011;4727;51.202;6.344;2023-04-03T15:37:45;3.60;;;2.53;;
9374;SDS011;4727;51.202;6.344;2023-04-03T15:40:13;2.17;;;1.93;;
9374;SDS011;4727;51.202;6.344;2023-04-03T15:42:39;3.33;;;2.80;;
9374;SDS011;4727;51.202;6.344;2023-04-03T15:45:06;2.27;;;2.07;;
9374;SDS011;4727;51.202;6.344;2023-04-03T15:47:32;3.47;;;1.80;;
9374;SDS011;4727;51.202;6.344;2023-04-03T15:49:59;2.10;;;1.90;;
9374;SDS011;4727;51.202;6.344;2023-04-03T15:52:25;3.63;;;2.23;;
9374;SDS011;4727;51.202;6.344;2023-04-03T15:54:51;4.53;;;3.47;;
9374;SDS011;4727;51.202;6.344;2023-04-03T15:57:17;3.80;;;2.80;;
9374;SDS011;4727;51.202;6.344;2023-04-03T15:59:43;2.67;;;2.47;;
9374;SDS011;4727;51.202;6.344;2023-04-03T16:02:09;3.23;;;2.63;;
9374;SDS011;4727;51.202;6.344;2023-04-03T16:04:37;3.17;;;2.37;;
9374;SDS011;4727;51.202;6.344;2023-04-03T16:07:03;2.07;;;1.90;;
9374;SDS011;4727;51.202;6.344;2023-04-03T16:09:30;3.13;;;2.13;;
9374;SDS011;4727;51.202;6.344;2023-04-03T16:11:57;4.17;;;3.23;;
9374;SDS011;4727;51.202;6.344;2023-04-03T16:14:23;2.17;;;1.77;;
9374;SDS011;4727;51.202;6.344;2023-04-03T16:16:49;3.07;;;2.10;;
9374;SDS011;4727;51.202;6.344;2023-04-03T16:19:15;2.87;;;2.07;;
9374;SDS011;4727;51.202;6.344;2023-04-03T16:21:41;3.27;;;2.10;;
9374;SDS011;4727;51.202;6.344;2023-04-03T16:24:08;2.70;;;1.63;;
9374;SDS011;4727;51.202;6.344;2023-04-03T16:26:34;2.20;;;1.83;;
9374;SDS011;4727;51.202;6.344;2023-04-03T16:29:00;3.03;;;2.10;;
9374;SDS011;4727;51.202;6.344;2023-04-03T16:31:26;2.70;;;1.83;;
9374;SDS011;4727;51.202;6.344;2023-04-03T16:33:53;2.73;;;2.00;;
9374;SDS011;4727;51.202;6.344;2023-04-03T16:36:19;3.10;;;2.20;;
9374;SDS011;4727;51.202;6.344;2023-04-03T16:38:45;2.00;;;1.80;;
9374;SDS011;4727;51.202;6.344;2023-04-03T16:41:11;2.77;;;2.00;;
9374;SDS011;4727;51.202;6.344;2023-04-03T16:43:37;2.17;;;1.97;;
9374;SDS011;4727;51.202;6.344;2023-04-03T16:46:03;1.73;;;1.47;;
9374;SDS011;4727;51.202;6.344;2023-04-03T16:48:29;2.40;;;1.87;;
9374;SDS011;4727;51.202;6.344;2023-04-03T16:50:55;1.83;;;1.70;;
9374;SDS011;4727;51.202;6.344;2023-04-03T16:53:22;2.40;;;2.20;;
9374;SDS011;4727;51.202;6.344;2023-04-03T16:55:48;2.57;;;2.37;;